sensor_id;sensor_type;location;lat;lon;timestamp;P1;durP1;ratioP1;P2;durP2;ratioP2
5379;SDS011;2713;42.680;23.310;2023-07-31T00:01:09;5.03;;;4.53;;
5379;SDS011;2713;42.680;23.310;2023-07-31T00:03:36;5.10;;;4.70;;
5379;SDS011;2713;42.680;23.310;2023-07-31T00:06:03;5.53;;;5.13;;
5379;SDS011;2713;42.680;23.310;2023-07-31T00:08:30;5.30;;;4.80;;
5379;SDS011;2713;42.680;23.310;2023-07-31T00:10:56;5.83;;;5.17;;
5379;SDS011;2713;42.680;23.310;2023-07-31T00:13:24;5.63;;;5.20;;
5379;SDS011;2713;42.680;23.310;2023-07-31T00:15:51;4.70;;;4.30;;
5379;SDS011;2713;42.680;23.310;2023-07-31T00:18:18;4.57;;;4.17;;
5379;SDS011;2713;42.680;23.310;2023-07-31T00:20:45;4.93;;;4.53;;
5379;SDS011;2713;42.680;23.310;2023-07-31T00:23:12;4.80;;;4.20;;
5379;SDS011;2713;42.680;23.310;2023-07-31T00:25:39;6.73;;;5.07;;
5379;SDS011;2713;42.680;23.310;2023-07-31T00:28:06;5.40;;;4.90;;
5379;SDS011;2713;42.680;23.310;2023-07-31T00:30:34;6.00;;;5.50;;
5379;SDS011;2713;42.680;23.310;2023-07-31T00:33:01;5.13;;;4.63;;
5379;SDS011;2713;42.680;23.310;2023-07-31T00:35:29;5.23;;;4.83;;
5379;SDS011;2713;42.680;23.310;2023-07-31T00:37:56;6.50;;;5.90;;
5379;SDS011;2713;42.680;23.310;2023-07-31T00:40:25;5.80;;;5.40;;
5379;SDS011;2713;42.680;23.310;2023-07-31T00:42:51;5.97;;;5.23;;
5379;SDS011;2713;42.680;23.310;2023-07-31T00:45:18;5.80;;;5.30;;
5379;SDS011;2713;42.680;23.310;2023-07-31T00:47:47;6.13;;;5.60;;
5379;SDS011;2713;42.680;23.310;2023-07-31T00:50:13;6.53;;;5.93;;
5379;SDS011;2713;42.680;23.310;2023-07-31T00:52:41;7.40;;;6.80;;
5379;SDS011;2713;42.680;23.310;2023-07-31T00:55:08;7.67;;;6.80;;
5379;SDS011;2713;42.680;23.310;2023-07-31T00:57:35;8.13;;;7.33;;
5379;SDS011;2713;42.680;23.310;2023-07-31T01:00:04;8.00;;;7.30;;
5379;SDS011;2713;42.680;23.310;2023-07-31T01:02:32;8.73;;;7.90;;
5379;SDS011;2713;42.680;23.310;2023-07-31T01:05:01;8.00;;;7.30;;
5379;SDS011;2713;42.680;23.310;2023-07-31T01:07:31;12.43;;;8.00;;
5379;SDS011;2713;42.680;23.310;2023-07-31T01:10:07;8.97;;;8.17;;
5379;SDS011;2713;42.680;23.310;2023-07-31T01:12:41;9.67;;;8.77;;
5379;SDS011;2713;42.680;23.310;2023-07-31T01:15:09;10.23;;;9.30;;
5379;SDS011;2713;42.680;23.310;2023-07-31T01:17:36;10.93;;;9.83;;
5379;SDS011;2713;42.680;23.310;2023-07-31T01:20:07;10.97;;;9.70;;
5379;SDS011;2713;42.680;23.310;2023-07-31T01:25:55;11.47;;;10.37;;
5379;SDS011;2713;42.680;23.310;2023-07-31T01:28:29;12.80;;;11.57;;
5379;SDS011;2713;42.680;23.310;2023-07-31T01:31:05;13.37;;;11.97;;
5379;SDS011;2713;42.680;23.310;2023-07-31T01:33:34;12.87;;;11.63;;
5379;SDS011;2713;42.680;23.310;2023-07-31T01:36:02;14.37;;;12.87;;
5379;SDS011;2713;42.680;23.310;2023-07-31T01:38:30;15.37;;;13.77;;
5379;SDS011;2713;42.680;23.310;2023-07-31T01:40:58;17.23;;;15.43;;
5379;SDS011;2713;42.680;23.310;2023-07-31T01:43:25;16.60;;;14.60;;
5379;SDS011;2713;42.680;23.310;2023-07-31T01:45:52;17.93;;;15.33;;
5379;SDS011;2713;42.680;23.310;2023-07-31T01:48:19;18.77;;;15.63;;
5379;SDS011;2713;42.680;23.310;2023-07-31T01:50:46;18.73;;;16.47;;
5379;SDS011;2713;42.680;23.310;2023-07-31T01:53:12;19.57;;;15.90;;
5379;SDS011;2713;42.680;23.310;2023-07-31T01:55:39;20.40;;;17.00;;
5379;SDS011;2713;42.680;23.310;2023-07-31T01:58:09;21.23;;;17.33;;
5379;SDS011;2713;42.680;23.310;2023-07-31T02:00:35;19.23;;;17.20;;
5379;SDS011;2713;42.680;23.310;2023-07-31T02:03:01;20.00;;;17.87;;
5379;SDS011;2713;42.680;23.310;2023-07-31T02:05:28;22.03;;;19.10;;
5379;SDS011;2713;42.680;23.310;2023-07-31T02:07:55;21.93;;;18.50;;
5379;SDS011;2713;42.680;23.310;2023-07-31T02:10:26;20.83;;;18.13;;
5379;SDS011;2713;42.680;23.310;2023-07-31T02:12:52;22.63;;;18.97;;
5379;SDS011;2713;42.680;23.310;2023-07-31T02:15:21;23.37;;;19.93;;
5379;SDS011;2713;42.680;23.310;2023-07-31T02:17:47;21.13;;;18.17;;
5379;SDS011;2713;42.680;23.310;2023-07-31T02:20:14;24.60;;;19.53;;
5379;SDS011;2713;42.680;23.310;2023-07-31T02:22:41;22.27;;;18.43;;
5379;SDS011;2713;42.680;23.310;2023-07-31T02:25:08;20.47;;;18.23;;
5379;SDS011;2713;42.680;23.310;2023-07-31T02:27:34;23.60;;;19.17;;
5379;SDS011;2713;42.680;23.310;2023-07-31T02:30:02;21.40;;;18.50;;
5379;SDS011;2713;42.680;23.310;2023-07-31T02:32:30;21.77;;;18.67;;
5379;SDS011;2713;42.680;23.310;2023-07-31T02:34:56;24.07;;;20.00;;
5379;SDS011;2713;42.680;23.310;2023-07-31T02:37:25;22.13;;;19.00;;
5379;SDS011;2713;42.680;23.310;2023-07-31T02:39:53;22.17;;;19.37;;
5379;SDS011;2713;42.680;23.310;2023-07-31T02:42:20;20.60;;;18.40;;
5379;SDS011;2713;42.680;23.310;2023-07-31T02:44:47;20.80;;;18.37;;
5379;SDS011;2713;42.680;23.310;2023-07-31T02:47:16;24.57;;;18.80;;
5379;SDS011;2713;42.680;23.310;2023-07-31T02:49:45;21.20;;;18.47;;
5379;SDS011;2713;42.680;23.310;2023-07-31T02:52:11;22.80;;;19.87;;
5379;SDS011;2713;42.680;23.310;2023-07-31T02:54:38;24.07;;;19.73;;
5379;SDS011;2713;42.680;23.310;2023-07-31T02:57:05;25.90;;;19.23;;
5379;SDS011;2713;42.680;23.310;2023-07-31T02:59:32;20.67;;;17.63;;
5379;SDS011;2713;42.680;23.310;2023-07-31T03:01:59;22.47;;;18.50;;
5379;SDS011;2713;42.680;23.310;2023-07-31T03:04:25;23.47;;;19.57;;
5379;SDS011;2713;42.680;23.310;2023-07-31T03:06:53;22.83;;;18.67;;
5379;SDS011;2713;42.680;23.310;2023-07-31T03:09:20;21.17;;;18.50;;
5379;SDS011;2713;42.680;23.310;2023-07-31T03:11:48;21.13;;;17.87;;
5379;SDS011;2713;42.680;23.310;2023-07-31T03:14:14;19.60;;;17.50;;
5379;SDS011;2713;42.680;23.310;2023-07-31T03:16:41;22.20;;;19.30;;
5379;SDS011;2713;42.680;23.310;2023-07-31T03:19:08;21.50;;;18.07;;
5379;SDS011;2713;42.680;23.310;2023-07-31T03:21:35;21.00;;;17.77;;
5379;SDS011;2713;42.680;23.310;2023-07-31T03:24:03;21.93;;;18.77;;
5379;SDS011;2713;42.680;23.310;2023-07-31T03:26:30;21.23;;;17.87;;
5379;SDS011;2713;42.680;23.310;2023-07-31T03:28:57;21.40;;;18.70;;
5379;SDS011;2713;42.680;23.310;2023-07-31T03:31:25;24.13;;;19.30;;
5379;SDS011;2713;42.680;23.310;2023-07-31T03:33:52;21.40;;;18.80;;
5379;SDS011;2713;42.680;23.310;2023-07-31T03:36:19;20.70;;;18.20;;
5379;SDS011;2713;42.680;23.310;2023-07-31T03:38:46;24.20;;;20.67;;
5379;SDS011;2713;42.680;23.310;2023-07-31T03:41:14;22.93;;;19.17;;
5379;SDS011;2713;42.680;23.310;2023-07-31T03:43:43;24.20;;;19.30;;
5379;SDS011;2713;42.680;23.310;2023-07-31T03:46:11;23.77;;;18.73;;
5379;SDS011;2713;42.680;23.310;2023-07-31T03:48:38;23.40;;;19.20;;
5379;SDS011;2713;42.680;23.310;2023-07-31T03:51:05;24.80;;;20.00;;
5379;SDS011;2713;42.680;23.310;2023-07-31T03:53:32;23.97;;;19.63;;
5379;SDS011;2713;42.680;23.310;2023-07-31T03:55:58;25.63;;;20.80;;
5379;SDS011;2713;42.680;23.310;2023-07-31T03:58:27;24.50;;;18.90;;
5379;SDS011;2713;42.680;23.310;2023-07-31T04:00:53;23.30;;;19.20;;
5379;SDS011;2713;42.680;23.310;2023-07-31T04:03:20;25.40;;;20.37;;
5379;SDS011;2713;42.680;23.310;2023-07-31T04:05:47;28.20;;;20.83;;
5379;SDS011;2713;42.680;23.310;2023-07-31T04:08:14;26.40;;;20.97;;
5379;SDS011;2713;42.680;23.310;2023-07-31T04:10:40;25.63;;;20.03;;
5379;SDS011;2713;42.680;23.310;2023-07-31T04:13:07;28.53;;;21.40;;
5379;SDS011;2713;42.680;23.310;2023-07-31T04:15:35;25.53;;;19.60;;
5379;SDS011;2713;42.680;23.310;2023-07-31T04:18:02;26.03;;;20.60;;
5379;SDS011;2713;42.680;23.310;2023-07-31T04:20:29;25.00;;;20.27;;
5379;SDS011;2713;42.680;23.310;2023-07-31T04:22:56;24.57;;;19.60;;
5379;SDS011;2713;42.680;23.310;2023-07-31T04:25:22;27.83;;;21.30;;
5379;SDS011;2713;42.680;23.310;2023-07-31T04:27:49;25.00;;;19.83;;
5379;SDS011;2713;42.680;23.310;2023-07-31T04:30:16;27.30;;;20.10;;
5379;SDS011;2713;42.680;23.310;2023-07-31T04:32:44;25.50;;;20.20;;
5379;SDS011;2713;42.680;23.310;2023-07-31T04:35:11;28.23;;;22.00;;
5379;SDS011;2713;42.680;23.310;2023-07-31T04:37:38;25.80;;;20.00;;
5379;SDS011;2713;42.680;23.310;2023-07-31T04:40:05;26.10;;;20.37;;
5379;SDS011;2713;42.680;23.310;2023-07-31T04:42:33;26.37;;;20.23;;
5379;SDS011;2713;42.680;23.310;2023-07-31T04:45:00;26.43;;;20.93;;
5379;SDS011;2713;42.680;23.310;2023-07-31T04:47:27;23.40;;;19.00;;
5379;SDS011;2713;42.680;23.310;2023-07-31T04:49:55;26.03;;;20.00;;
5379;SDS011;2713;42.680;23.310;2023-07-31T04:52:22;26.33;;;20.30;;
5379;SDS011;2713;42.680;23.310;2023-07-31T04:54:48;24.97;;;20.13;;
5379;SDS011;2713;42.680;23.310;2023-07-31T04:57:15;25.03;;;19.90;;
5379;SDS011;2713;42.680;23.310;2023-07-31T04:59:42;22.83;;;18.77;;
5379;SDS011;2713;42.680;23.310;2023-07-31T05:02:11;23.30;;;18.90;;
5379;SDS011;2713;42.680;23.310;2023-07-31T05:04:38;23.50;;;19.80;;
5379;SDS011;2713;42.680;23.310;2023-07-31T05:07:07;24.70;;;19.20;;
5379;SDS011;2713;42.680;23.310;2023-07-31T05:09:33;20.90;;;17.33;;
5379;SDS011;2713;42.680;23.310;2023-07-31T05:12:00;24.30;;;19.10;;
5379;SDS011;2713;42.680;23.310;2023-07-31T05:14:27;21.73;;;17.80;;
5379;SDS011;2713;42.680;23.310;2023-07-31T05:16:54;21.50;;;17.97;;
5379;SDS011;2713;42.680;23.310;2023-07-31T05:19:20;23.83;;;17.77;;
5379;SDS011;2713;42.680;23.310;2023-07-31T05:21:47;22.00;;;17.23;;
5379;SDS011;2713;42.680;23.310;2023-07-31T05:24:15;18.70;;;16.50;;
5379;SDS011;2713;42.680;23.310;2023-07-31T05:26:42;18.17;;;16.17;;
5379;SDS011;2713;42.680;23.310;2023-07-31T05:29:09;17.77;;;14.93;;
5379;SDS011;2713;42.680;23.310;2023-07-31T05:31:36;17.73;;;15.83;;
5379;SDS011;2713;42.680;23.310;2023-07-31T05:34:03;17.20;;;15.50;;
5379;SDS011;2713;42.680;23.310;2023-07-31T05:36:30;17.40;;;15.50;;
5379;SDS011;2713;42.680;23.310;2023-07-31T05:38:57;16.50;;;14.27;;
5379;SDS011;2713;42.680;23.310;2023-07-31T05:41:25;16.90;;;14.30;;
5379;SDS011;2713;42.680;23.310;2023-07-31T05:43:51;13.53;;;12.17;;
5379;SDS011;2713;42.680;23.310;2023-07-31T05:46:18;13.17;;;11.90;;
5379;SDS011;2713;42.680;23.310;2023-07-31T05:48:45;12.47;;;11.17;;
5379;SDS011;2713;42.680;23.310;2023-07-31T05:51:12;11.93;;;10.73;;
5379;SDS011;2713;42.680;23.310;2023-07-31T05:53:38;11.47;;;10.27;;
5379;SDS011;2713;42.680;23.310;2023-07-31T05:56:06;12.00;;;10.80;;
5379;SDS011;2713;42.680;23.310;2023-07-31T05:58:34;12.47;;;11.17;;
5379;SDS011;2713;42.680;23.310;2023-07-31T06:01:01;11.83;;;10.73;;
5379;SDS011;2713;42.680;23.310;2023-07-31T06:03:28;11.03;;;9.90;;
5379;SDS011;2713;42.680;23.310;2023-07-31T06:05:55;10.73;;;9.63;;
5379;SDS011;2713;42.680;23.310;2023-07-31T06:08:22;8.67;;;7.87;;
5379;SDS011;2713;42.680;23.310;2023-07-31T06:10:49;8.70;;;7.90;;
5379;SDS011;2713;42.680;23.310;2023-07-31T06:13:16;9.47;;;8.40;;
5379;SDS011;2713;42.680;23.310;2023-07-31T06:15:44;9.13;;;7.60;;
5379;SDS011;2713;42.680;23.310;2023-07-31T06:18:10;7.53;;;6.87;;
5379;SDS011;2713;42.680;23.310;2023-07-31T06:20:38;7.30;;;6.70;;
5379;SDS011;2713;42.680;23.310;2023-07-31T06:23:05;7.47;;;6.77;;
5379;SDS011;2713;42.680;23.310;2023-07-31T06:25:32;6.73;;;6.13;;
5379;SDS011;2713;42.680;23.310;2023-07-31T06:27:59;6.93;;;6.33;;
5379;SDS011;2713;42.680;23.310;2023-07-31T06:30:26;13.17;;;11.93;;
5379;SDS011;2713;42.680;23.310;2023-07-31T06:32:54;6.80;;;6.20;;
5379;SDS011;2713;42.680;23.310;2023-07-31T06:35:21;8.60;;;5.90;;
5379;SDS011;2713;42.680;23.310;2023-07-31T06:37:48;7.10;;;6.50;;
5379;SDS011;2713;42.680;23.310;2023-07-31T06:40:16;6.50;;;6.00;;
5379;SDS011;2713;42.680;23.310;2023-07-31T06:42:43;6.33;;;5.73;;
5379;SDS011;2713;42.680;23.310;2023-07-31T06:45:10;6.50;;;5.90;;
5379;SDS011;2713;42.680;23.310;2023-07-31T06:47:37;6.73;;;6.07;;
5379;SDS011;2713;42.680;23.310;2023-07-31T06:50:05;6.37;;;5.77;;
5379;SDS011;2713;42.680;23.310;2023-07-31T06:52:33;8.40;;;5.90;;
5379;SDS011;2713;42.680;23.310;2023-07-31T06:55:00;6.30;;;5.70;;
5379;SDS011;2713;42.680;23.310;2023-07-31T06:57:29;6.23;;;5.67;;
5379;SDS011;2713;42.680;23.310;2023-07-31T06:59:56;6.10;;;5.60;;
5379;SDS011;2713;42.680;23.310;2023-07-31T07:02:22;6.60;;;5.00;;
5379;SDS011;2713;42.680;23.310;2023-07-31T07:04:49;5.87;;;5.37;;
5379;SDS011;2713;42.680;23.310;2023-07-31T07:07:18;5.77;;;5.27;;
5379;SDS011;2713;42.680;23.310;2023-07-31T07:09:45;6.00;;;5.40;;
5379;SDS011;2713;42.680;23.310;2023-07-31T07:12:11;5.30;;;4.90;;
5379;SDS011;2713;42.680;23.310;2023-07-31T07:14:39;5.40;;;4.90;;
5379;SDS011;2713;42.680;23.310;2023-07-31T07:17:05;6.23;;;5.37;;
5379;SDS011;2713;42.680;23.310;2023-07-31T07:19:32;6.50;;;5.67;;
5379;SDS011;2713;42.680;23.310;2023-07-31T07:21:59;5.33;;;4.83;;
5379;SDS011;2713;42.680;23.310;2023-07-31T07:24:28;5.17;;;4.67;;
5379;SDS011;2713;42.680;23.310;2023-07-31T07:26:55;5.57;;;5.07;;
5379;SDS011;2713;42.680;23.310;2023-07-31T07:29:22;6.57;;;5.33;;
5379;SDS011;2713;42.680;23.310;2023-07-31T07:31:49;5.00;;;4.60;;
5379;SDS011;2713;42.680;23.310;2023-07-31T07:34:16;5.50;;;5.03;;
5379;SDS011;2713;42.680;23.310;2023-07-31T07:36:43;9.23;;;5.10;;
5379;SDS011;2713;42.680;23.310;2023-07-31T07:39:10;6.07;;;5.47;;
5379;SDS011;2713;42.680;23.310;2023-07-31T07:41:38;6.07;;;5.50;;
5379;SDS011;2713;42.680;23.310;2023-07-31T07:44:05;6.30;;;5.67;;
5379;SDS011;2713;42.680;23.310;2023-07-31T07:46:32;5.77;;;5.27;;
5379;SDS011;2713;42.680;23.310;2023-07-31T07:48:59;5.67;;;5.27;;
5379;SDS011;2713;42.680;23.310;2023-07-31T07:51:26;5.27;;;4.80;;
5379;SDS011;2713;42.680;23.310;2023-07-31T07:53:52;7.37;;;4.53;;
5379;SDS011;2713;42.680;23.310;2023-07-31T07:56:19;4.23;;;3.93;;
5379;SDS011;2713;42.680;23.310;2023-07-31T07:58:49;4.30;;;4.00;;
5379;SDS011;2713;42.680;23.310;2023-07-31T08:01:16;4.53;;;4.10;;
5379;SDS011;2713;42.680;23.310;2023-07-31T08:03:43;4.43;;;4.00;;
5379;SDS011;2713;42.680;23.310;2023-07-31T08:06:10;6.50;;;4.80;;
5379;SDS011;2713;42.680;23.310;2023-07-31T08:08:37;4.97;;;4.47;;
5379;SDS011;2713;42.680;23.310;2023-07-31T08:11:04;5.27;;;4.77;;
5379;SDS011;2713;42.680;23.310;2023-07-31T08:13:31;5.10;;;4.60;;
5379;SDS011;2713;42.680;23.310;2023-07-31T08:15:59;4.93;;;4.50;;
5379;SDS011;2713;42.680;23.310;2023-07-31T08:18:26;7.93;;;4.70;;
5379;SDS011;2713;42.680;23.310;2023-07-31T08:20:53;4.80;;;4.40;;
5379;SDS011;2713;42.680;23.310;2023-07-31T08:23:20;5.40;;;4.90;;
5379;SDS011;2713;42.680;23.310;2023-07-31T08:25:46;6.10;;;4.77;;
5379;SDS011;2713;42.680;23.310;2023-07-31T08:28:14;6.17;;;4.73;;
5379;SDS011;2713;42.680;23.310;2023-07-31T08:30:41;5.23;;;4.83;;
5379;SDS011;2713;42.680;23.310;2023-07-31T08:33:10;6.80;;;5.17;;
5379;SDS011;2713;42.680;23.310;2023-07-31T08:35:36;5.03;;;4.53;;
5379;SDS011;2713;42.680;23.310;2023-07-31T08:38:03;5.20;;;4.80;;
5379;SDS011;2713;42.680;23.310;2023-07-31T08:40:30;5.10;;;4.50;;
5379;SDS011;2713;42.680;23.310;2023-07-31T08:42:57;4.03;;;3.73;;
5379;SDS011;2713;42.680;23.310;2023-07-31T08:45:27;13.40;;;4.67;;
5379;SDS011;2713;42.680;23.310;2023-07-31T08:47:54;4.90;;;4.50;;
5379;SDS011;2713;42.680;23.310;2023-07-31T08:50:23;5.83;;;5.17;;
5379;SDS011;2713;42.680;23.310;2023-07-31T08:52:51;4.90;;;4.50;;
5379;SDS011;2713;42.680;23.310;2023-07-31T08:55:19;5.30;;;4.23;;
5379;SDS011;2713;42.680;23.310;2023-07-31T08:57:48;5.27;;;4.37;;
5379;SDS011;2713;42.680;23.310;2023-07-31T09:00:17;5.07;;;4.40;;
5379;SDS011;2713;42.680;23.310;2023-07-31T09:02:51;4.30;;;4.00;;
5379;SDS011;2713;42.680;23.310;2023-07-31T09:05:21;4.93;;;3.93;;
5379;SDS011;2713;42.680;23.310;2023-07-31T09:07:50;4.37;;;3.97;;
5379;SDS011;2713;42.680;23.310;2023-07-31T09:10:17;4.50;;;4.10;;
5379;SDS011;2713;42.680;23.310;2023-07-31T09:12:44;4.63;;;4.23;;
5379;SDS011;2713;42.680;23.310;2023-07-31T09:15:12;4.23;;;3.93;;
5379;SDS011;2713;42.680;23.310;2023-07-31T09:17:40;7.80;;;4.50;;
5379;SDS011;2713;42.680;23.310;2023-07-31T09:20:13;7.50;;;4.30;;
5379;SDS011;2713;42.680;23.310;2023-07-31T09:22:40;4.37;;;3.97;;
5379;SDS011;2713;42.680;23.310;2023-07-31T09:25:19;6.90;;;4.33;;
5379;SDS011;2713;42.680;23.310;2023-07-31T09:27:48;4.60;;;4.20;;
5379;SDS011;2713;42.680;23.310;2023-07-31T09:30:16;4.83;;;4.43;;
5379;SDS011;2713;42.680;23.310;2023-07-31T09:32:44;7.00;;;4.30;;
5379;SDS011;2713;42.680;23.310;2023-07-31T09:35:19;4.70;;;4.30;;
5379;SDS011;2713;42.680;23.310;2023-07-31T09:37:50;4.87;;;4.57;;
5379;SDS011;2713;42.680;23.310;2023-07-31T09:40:30;4.70;;;4.30;;
5379;SDS011;2713;42.680;23.310;2023-07-31T09:42:58;6.93;;;4.60;;
5379;SDS011;2713;42.680;23.310;2023-07-31T09:45:25;6.10;;;4.93;;
5379;SDS011;2713;42.680;23.310;2023-07-31T09:47:53;4.67;;;4.10;;
5379;SDS011;2713;42.680;23.310;2023-07-31T09:50:20;4.40;;;4.10;;
5379;SDS011;2713;42.680;23.310;2023-07-31T09:52:48;4.90;;;4.40;;
5379;SDS011;2713;42.680;23.310;2023-07-31T09:55:14;4.07;;;3.77;;
5379;SDS011;2713;42.680;23.310;2023-07-31T09:57:43;4.07;;;3.77;;
5379;SDS011;2713;42.680;23.310;2023-07-31T10:00:12;3.90;;;3.60;;
5379;SDS011;2713;42.680;23.310;2023-07-31T10:02:40;3.90;;;3.60;;
5379;SDS011;2713;42.680;23.310;2023-07-31T10:05:11;5.57;;;3.53;;
5379;SDS011;2713;42.680;23.310;2023-07-31T10:07:40;4.83;;;3.60;;
5379;SDS011;2713;42.680;23.310;2023-07-31T10:10:09;4.37;;;3.73;;
5379;SDS011;2713;42.680;23.310;2023-07-31T10:12:37;4.50;;;3.43;;
5379;SDS011;2713;42.680;23.310;2023-07-31T10:15:06;3.70;;;3.40;;
5379;SDS011;2713;42.680;23.310;2023-07-31T10:17:35;3.63;;;3.33;;
5379;SDS011;2713;42.680;23.310;2023-07-31T10:20:02;4.90;;;4.00;;
5379;SDS011;2713;42.680;23.310;2023-07-31T10:22:30;4.70;;;3.30;;
5379;SDS011;2713;42.680;23.310;2023-07-31T10:24:58;3.80;;;3.50;;
5379;SDS011;2713;42.680;23.310;2023-07-31T10:27:28;3.53;;;3.27;;
5379;SDS011;2713;42.680;23.310;2023-07-31T10:29:56;3.40;;;3.10;;
5379;SDS011;2713;42.680;23.310;2023-07-31T10:32:26;3.70;;;3.40;;
5379;SDS011;2713;42.680;23.310;2023-07-31T10:34:53;3.50;;;3.30;;
5379;SDS011;2713;42.680;23.310;2023-07-31T10:37:24;3.60;;;3.40;;
5379;SDS011;2713;42.680;23.310;2023-07-31T10:39:56;3.90;;;3.50;;
5379;SDS011;2713;42.680;23.310;2023-07-31T10:42:27;4.20;;;3.80;;
5379;SDS011;2713;42.680;23.310;2023-07-31T10:44:56;3.87;;;3.13;;
5379;SDS011;2713;42.680;23.310;2023-07-31T10:47:26;4.03;;;3.23;;
5379;SDS011;2713;42.680;23.310;2023-07-31T10:49:53;3.40;;;3.20;;
5379;SDS011;2713;42.680;23.310;2023-07-31T10:52:37;3.90;;;3.50;;
5379;SDS011;2713;42.680;23.310;2023-07-31T10:55:14;3.80;;;3.50;;
5379;SDS011;2713;42.680;23.310;2023-07-31T10:57:44;3.50;;;3.30;;
5379;SDS011;2713;42.680;23.310;2023-07-31T11:00:18;3.87;;;3.57;;
5379;SDS011;2713;42.680;23.310;2023-07-31T11:02:58;3.30;;;3.10;;
5379;SDS011;2713;42.680;23.310;2023-07-31T11:05:49;2.83;;;2.63;;
5379;SDS011;2713;42.680;23.310;2023-07-31T11:08:19;4.33;;;2.70;;
5379;SDS011;2713;42.680;23.310;2023-07-31T11:10:47;3.10;;;2.90;;
5379;SDS011;2713;42.680;23.310;2023-07-31T11:13:16;3.10;;;2.80;;
5379;SDS011;2713;42.680;23.310;2023-07-31T11:15:43;3.33;;;2.80;;
5379;SDS011;2713;42.680;23.310;2023-07-31T11:18:11;4.53;;;2.77;;
5379;SDS011;2713;42.680;23.310;2023-07-31T11:20:42;3.40;;;3.20;;
5379;SDS011;2713;42.680;23.310;2023-07-31T11:23:09;2.90;;;2.70;;
5379;SDS011;2713;42.680;23.310;2023-07-31T11:25:38;4.13;;;2.90;;
5379;SDS011;2713;42.680;23.310;2023-07-31T11:28:08;2.80;;;2.60;;
5379;SDS011;2713;42.680;23.310;2023-07-31T11:30:36;3.20;;;3.00;;
5379;SDS011;2713;42.680;23.310;2023-07-31T11:33:04;3.70;;;3.40;;
5379;SDS011;2713;42.680;23.310;2023-07-31T11:35:34;3.33;;;3.03;;
5379;SDS011;2713;42.680;23.310;2023-07-31T11:38:02;3.10;;;2.90;;
5379;SDS011;2713;42.680;23.310;2023-07-31T11:40:29;4.57;;;3.60;;
5379;SDS011;2713;42.680;23.310;2023-07-31T11:42:56;8.30;;;3.93;;
5379;SDS011;2713;42.680;23.310;2023-07-31T11:45:27;4.37;;;3.97;;
5379;SDS011;2713;42.680;23.310;2023-07-31T11:47:54;4.30;;;4.00;;
5379;SDS011;2713;42.680;23.310;2023-07-31T11:50:25;4.33;;;3.93;;
5379;SDS011;2713;42.680;23.310;2023-07-31T11:52:54;3.40;;;3.20;;
5379;SDS011;2713;42.680;23.310;2023-07-31T11:55:25;4.70;;;3.30;;
5379;SDS011;2713;42.680;23.310;2023-07-31T11:57:54;3.77;;;3.47;;
5379;SDS011;2713;42.680;23.310;2023-07-31T12:00:23;4.07;;;3.77;;
5379;SDS011;2713;42.680;23.310;2023-07-31T12:02:51;4.17;;;3.87;;
5379;SDS011;2713;42.680;23.310;2023-07-31T12:05:19;4.43;;;4.03;;
5379;SDS011;2713;42.680;23.310;2023-07-31T12:07:49;5.40;;;5.00;;
5379;SDS011;2713;42.680;23.310;2023-07-31T12:10:25;5.10;;;4.37;;
5379;SDS011;2713;42.680;23.310;2023-07-31T12:12:57;5.80;;;5.07;;
5379;SDS011;2713;42.680;23.310;2023-07-31T12:15:29;5.53;;;5.03;;
5379;SDS011;2713;42.680;23.310;2023-07-31T12:17:58;5.90;;;5.40;;
5379;SDS011;2713;42.680;23.310;2023-07-31T12:20:25;6.47;;;5.87;;
5379;SDS011;2713;42.680;23.310;2023-07-31T12:22:56;7.27;;;6.57;;
5379;SDS011;2713;42.680;23.310;2023-07-31T12:25:29;7.87;;;7.17;;
5379;SDS011;2713;42.680;23.310;2023-07-31T12:27:57;6.90;;;6.30;;
5379;SDS011;2713;42.680;23.310;2023-07-31T12:30:27;6.13;;;5.60;;
5379;SDS011;2713;42.680;23.310;2023-07-31T12:32:55;6.90;;;6.30;;
5379;SDS011;2713;42.680;23.310;2023-07-31T12:35:22;6.00;;;5.40;;
5379;SDS011;2713;42.680;23.310;2023-07-31T12:37:48;6.20;;;5.70;;
5379;SDS011;2713;42.680;23.310;2023-07-31T12:40:15;5.53;;;5.03;;
5379;SDS011;2713;42.680;23.310;2023-07-31T12:42:44;6.30;;;5.80;;
5379;SDS011;2713;42.680;23.310;2023-07-31T12:45:10;6.60;;;6.00;;
5379;SDS011;2713;42.680;23.310;2023-07-31T12:47:37;6.20;;;5.60;;
5379;SDS011;2713;42.680;23.310;2023-07-31T12:50:05;6.20;;;5.60;;
5379;SDS011;2713;42.680;23.310;2023-07-31T12:52:32;7.47;;;6.63;;
5379;SDS011;2713;42.680;23.310;2023-07-31T12:54:59;8.87;;;7.07;;
5379;SDS011;2713;42.680;23.310;2023-07-31T12:57:26;7.77;;;6.97;;
5379;SDS011;2713;42.680;23.310;2023-07-31T12:59:54;7.20;;;6.50;;
5379;SDS011;2713;42.680;23.310;2023-07-31T13:02:21;8.10;;;7.23;;
5379;SDS011;2713;42.680;23.310;2023-07-31T13:04:48;7.50;;;6.70;;
5379;SDS011;2713;42.680;23.310;2023-07-31T13:07:16;7.93;;;7.13;;
5379;SDS011;2713;42.680;23.310;2023-07-31T13:09:42;8.73;;;7.77;;
5379;SDS011;2713;42.680;23.310;2023-07-31T13:12:09;9.00;;;7.83;;
5379;SDS011;2713;42.680;23.310;2023-07-31T13:14:36;7.93;;;7.20;;
5379;SDS011;2713;42.680;23.310;2023-07-31T13:17:04;8.50;;;7.03;;
5379;SDS011;2713;42.680;23.310;2023-07-31T13:19:31;7.80;;;7.07;;
5379;SDS011;2713;42.680;23.310;2023-07-31T13:21:58;7.03;;;6.20;;
5379;SDS011;2713;42.680;23.310;2023-07-31T13:24:25;7.53;;;6.80;;
5379;SDS011;2713;42.680;23.310;2023-07-31T13:26:51;6.97;;;6.37;;
5379;SDS011;2713;42.680;23.310;2023-07-31T13:29:18;8.83;;;6.93;;
5379;SDS011;2713;42.680;23.310;2023-07-31T13:31:47;6.63;;;5.97;;
5379;SDS011;2713;42.680;23.310;2023-07-31T13:34:15;6.67;;;6.10;;
5379;SDS011;2713;42.680;23.310;2023-07-31T13:36:41;6.10;;;5.60;;
5379;SDS011;2713;42.680;23.310;2023-07-31T13:39:08;6.40;;;5.80;;
5379;SDS011;2713;42.680;23.310;2023-07-31T13:41:35;6.50;;;6.00;;
5379;SDS011;2713;42.680;23.310;2023-07-31T13:44:02;6.07;;;5.57;;
5379;SDS011;2713;42.680;23.310;2023-07-31T13:46:29;5.93;;;5.43;;
5379;SDS011;2713;42.680;23.310;2023-07-31T13:48:57;6.60;;;5.97;;
5379;SDS011;2713;42.680;23.310;2023-07-31T13:51:26;7.47;;;5.73;;
5379;SDS011;2713;42.680;23.310;2023-07-31T13:53:53;6.57;;;5.97;;
5379;SDS011;2713;42.680;23.310;2023-07-31T13:56:21;5.80;;;5.30;;
5379;SDS011;2713;42.680;23.310;2023-07-31T13:58:50;6.60;;;5.50;;
5379;SDS011;2713;42.680;23.310;2023-07-31T14:01:20;6.63;;;6.00;;
5379;SDS011;2713;42.680;23.310;2023-07-31T14:03:47;6.93;;;6.30;;
5379;SDS011;2713;42.680;23.310;2023-07-31T14:06:17;6.50;;;5.93;;
5379;SDS011;2713;42.680;23.310;2023-07-31T14:08:46;5.90;;;5.27;;
5379;SDS011;2713;42.680;23.310;2023-07-31T14:11:13;5.80;;;5.20;;
5379;SDS011;2713;42.680;23.310;2023-07-31T14:13:40;6.13;;;5.53;;
5379;SDS011;2713;42.680;23.310;2023-07-31T14:16:07;5.60;;;5.20;;
5379;SDS011;2713;42.680;23.310;2023-07-31T14:18:34;6.53;;;6.03;;
5379;SDS011;2713;42.680;23.310;2023-07-31T14:21:01;5.93;;;5.43;;
5379;SDS011;2713;42.680;23.310;2023-07-31T14:23:28;6.23;;;5.63;;
5379;SDS011;2713;42.680;23.310;2023-07-31T14:25:56;6.40;;;5.80;;
5379;SDS011;2713;42.680;23.310;2023-07-31T14:28:22;6.27;;;5.77;;
5379;SDS011;2713;42.680;23.310;2023-07-31T14:30:49;6.93;;;5.70;;
5379;SDS011;2713;42.680;23.310;2023-07-31T14:33:16;5.60;;;5.10;;
5379;SDS011;2713;42.680;23.310;2023-07-31T14:35:43;6.30;;;5.33;;
5379;SDS011;2713;42.680;23.310;2023-07-31T14:38:10;5.63;;;5.17;;
5379;SDS011;2713;42.680;23.310;2023-07-31T14:40:37;6.83;;;6.23;;
5379;SDS011;2713;42.680;23.310;2023-07-31T14:43:10;6.00;;;5.60;;
5379;SDS011;2713;42.680;23.310;2023-07-31T14:45:37;5.40;;;5.00;;
5379;SDS011;2713;42.680;23.310;2023-07-31T14:48:04;6.17;;;5.67;;
5379;SDS011;2713;42.680;23.310;2023-07-31T14:50:31;8.70;;;6.40;;
5379;SDS011;2713;42.680;23.310;2023-07-31T14:52:58;8.13;;;5.40;;
5379;SDS011;2713;42.680;23.310;2023-07-31T14:55:25;6.40;;;5.80;;
5379;SDS011;2713;42.680;23.310;2023-07-31T14:57:52;5.83;;;5.33;;
5379;SDS011;2713;42.680;23.310;2023-07-31T15:00:20;6.40;;;5.50;;